sensor_id;sensor_type;location;lat;lon;timestamp;temperature;humidity
23471;DHT22;11908;50.806;4.424;2022-09-09T00:01:12;15.30;99.90
23471;DHT22;11908;50.806;4.424;2022-09-09T00:03:49;15.20;99.90
23471;DHT22;11908;50.806;4.424;2022-09-09T00:06:28;15.20;99.90
23471;DHT22;11908;50.806;4.424;2022-09-09T00:09:12;15.20;99.90
23471;DHT22;11908;50.806;4.424;2022-09-09T00:12:02;15.20;99.90
23471;DHT22;11908;50.806;4.424;2022-09-09T00:17:38;15.20;99.90
23471;DHT22;11908;50.806;4.424;2022-09-09T00:22:42;14.90;99.90
23471;DHT22;11908;50.806;4.424;2022-09-09T00:25:16;15.00;99.90
23471;DHT22;11908;50.806;4.424;2022-09-09T00:27:47;15.00;99.90
23471;DHT22;11908;50.806;4.424;2022-09-09T00:30:34;14.90;99.90
23471;DHT22;11908;50.806;4.424;2022-09-09T00:33:03;14.90;99.90
23471;DHT22;11908;50.806;4.424;2022-09-09T00:35:40;15.00;99.90
23471;DHT22;11908;50.806;4.424;2022-09-09T00:38:26;15.10;99.90
23471;DHT22;11908;50.806;4.424;2022-09-09T00:41:11;15.10;99.90
23471;DHT22;11908;50.806;4.424;2022-09-09T00:43:43;15.10;99.90
23471;DHT22;11908;50.806;4.424;2022-09-09T00:49:31;15.20;99.90
23471;DHT22;11908;50.806;4.424;2022-09-09T00:51:59;15.30;99.90
23471;DHT22;11908;50.806;4.424;2022-09-09T00:59:56;15.40;99.90
23471;DHT22;11908;50.806;4.424;2022-09-09T01:02:39;15.30;99.90
23471;DHT22;11908;50.806;4.424;2022-09-09T01:07:54;15.40;99.90
23471;DHT22;11908;50.806;4.424;2022-09-09T01:10:44;15.40;99.90
23471;DHT22;11908;50.806;4.424;2022-09-09T01:13:20;15.40;99.90
23471;DHT22;11908;50.806;4.424;2022-09-09T01:15:48;15.50;99.90
23471;DHT22;11908;50.806;4.424;2022-09-09T01:18:17;15.50;99.90
23471;DHT22;11908;50.806;4.424;2022-09-09T01:21:09;15.50;99.90
23471;DHT22;11908;50.806;4.424;2022-09-09T01:28:40;15.50;99.90
23471;DHT22;11908;50.806;4.424;2022-09-09T01:31:11;15.60;99.90
23471;DHT22;11908;50.806;4.424;2022-09-09T01:33:38;15.50;99.90
23471;DHT22;11908;50.806;4.424;2022-09-09T01:36:05;15.50;99.90
23471;DHT22;11908;50.806;4.424;2022-09-09T01:38:33;15.50;99.90
23471;DHT22;11908;50.806;4.424;2022-09-09T01:41:00;15.50;99.90
23471;DHT22;11908;50.806;4.424;2022-09-09T01:43:27;15.50;99.90
23471;DHT22;11908;50.806;4.424;2022-09-09T01:45:55;15.50;99.90
23471;DHT22;11908;50.806;4.424;2022-09-09T01:48:23;15.50;99.90
23471;DHT22;11908;50.806;4.424;2022-09-09T01:50:49;15.60;99.90
23471;DHT22;11908;50.806;4.424;2022-09-09T01:53:17;15.60;99.90
23471;DHT22;11908;50.806;4.424;2022-09-09T01:56:09;15.60;99.90
23471;DHT22;11908;50.806;4.424;2022-09-09T02:01:30;15.50;99.90
23471;DHT22;11908;50.806;4.424;2022-09-09T02:04:06;15.50;99.90
23471;DHT22;11908;50.806;4.424;2022-09-09T02:06:34;15.40;99.90
23471;DHT22;11908;50.806;4.424;2022-09-09T02:09:03;15.40;99.90
23471;DHT22;11908;50.806;4.424;2022-09-09T02:11:30;15.30;99.90
23471;DHT22;11908;50.806;4.424;2022-09-09T02:14:22;15.30;99.90
23471;DHT22;11908;50.806;4.424;2022-09-09T02:16:58;15.30;99.90
23471;DHT22;11908;50.806;4.424;2022-09-09T02:19:32;15.30;99.90
23471;DHT22;11908;50.806;4.424;2022-09-09T02:22:01;15.40;99.90
23471;DHT22;11908;50.806;4.424;2022-09-09T02:24:29;15.30;99.90
23471;DHT22;11908;50.806;4.424;2022-09-09T02:26:57;15.30;99.90
23471;DHT22;11908;50.806;4.424;2022-09-09T02:29:39;15.30;99.90
23471;DHT22;11908;50.806;4.424;2022-09-09T02:32:09;15.20;99.90
23471;DHT22;11908;50.806;4.424;2022-09-09T02:34:49;15.30;99.90
23471;DHT22;11908;50.806;4.424;2022-09-09T02:37:20;15.30;99.90
23471;DHT22;11908;50.806;4.424;2022-09-09T02:39:47;15.30;99.90
23471;DHT22;11908;50.806;4.424;2022-09-09T02:42:13;15.30;99.90
23471;DHT22;11908;50.806;4.424;2022-09-09T02:44:40;15.20;99.90
23471;DHT22;11908;50.806;4.424;2022-09-09T02:50:08;15.20;99.90
23471;DHT22;11908;50.806;4.424;2022-09-09T02:57:55;15.20;99.90
23471;DHT22;11908;50.806;4.424;2022-09-09T03:00:24;15.10;99.90
23471;DHT22;11908;50.806;4.424;2022-09-09T03:02:50;15.10;99.90
23471;DHT22;11908;50.806;4.424;2022-09-09T03:05:16;15.10;99.90
23471;DHT22;11908;50.806;4.424;2022-09-09T03:07:42;15.10;99.90
23471;DHT22;11908;50.806;4.424;2022-09-09T03:10:08;15.20;99.90
23471;DHT22;11908;50.806;4.424;2022-09-09T03:12:34;15.20;99.90
23471;DHT22;11908;50.806;4.424;2022-09-09T03:14:59;15.30;99.90
23471;DHT22;11908;50.806;4.424;2022-09-09T03:17:25;15.20;99.90
23471;DHT22;11908;50.806;4.424;2022-09-09T03:19:53;15.20;99.90
23471;DHT22;11908;50.806;4.424;2022-09-09T03:22:20;15.20;99.90
23471;DHT22;11908;50.806;4.424;2022-09-09T03:24:46;15.20;99.90
23471;DHT22;11908;50.806;4.424;2022-09-09T03:27:12;15.20;99.90
23471;DHT22;11908;50.806;4.424;2022-09-09T03:29:39;15.20;99.90
23471;DHT22;11908;50.806;4.424;2022-09-09T03:32:05;15.30;99.90
23471;DHT22;11908;50.806;4.424;2022-09-09T03:34:32;15.30;99.90
23471;DHT22;11908;50.806;4.424;2022-09-09T03:36:58;15.20;99.90
23471;DHT22;11908;50.806;4.424;2022-09-09T03:39:23;15.20;99.90
23471;DHT22;11908;50.806;4.424;2022-09-09T03:41:49;15.20;99.90
23471;DHT22;11908;50.806;4.424;2022-09-09T03:44:15;15.20;99.90
23471;DHT22;11908;50.806;4.424;2022-09-09T03:46:40;15.20;99.90
23471;DHT22;11908;50.806;4.424;2022-09-09T03:49:06;15.10;99.90
23471;DHT22;11908;50.806;4.424;2022-09-09T03:51:32;15.10;99.90
23471;DHT22;11908;50.806;4.424;2022-09-09T03:54:01;15.20;99.90
23471;DHT22;11908;50.806;4.424;2022-09-09T03:56:27;15.10;99.90
23471;DHT22;11908;50.806;4.424;2022-09-09T03:58:52;15.10;99.90
23471;DHT22;11908;50.806;4.424;2022-09-09T04:01:18;15.10;99.90
23471;DHT22;11908;50.806;4.424;2022-09-09T04:03:44;15.00;99.90
23471;DHT22;11908;50.806;4.424;2022-09-09T04:06:11;15.10;99.90
23471;DHT22;11908;50.806;4.424;2022-09-09T04:08:39;15.20;99.90
23471;DHT22;11908;50.806;4.424;2022-09-09T04:11:05;15.20;99.90
23471;DHT22;11908;50.806;4.424;2022-09-09T04:13:32;15.10;99.90
23471;DHT22;11908;50.806;4.424;2022-09-09T04:16:00;15.10;99.90
23471;DHT22;11908;50.806;4.424;2022-09-09T04:18:27;15.10;99.90
23471;DHT22;11908;50.806;4.424;2022-09-09T04:20:56;15.10;99.90
23471;DHT22;11908;50.806;4.424;2022-09-09T04:23:23;15.10;99.90
23471;DHT22;11908;50.806;4.424;2022-09-09T04:25:53;15.20;99.90
23471;DHT22;11908;50.806;4.424;2022-09-09T04:28:22;15.20;99.90
23471;DHT22;11908;50.806;4.424;2022-09-09T04:30:48;15.20;99.90
23471;DHT22;11908;50.806;4.424;2022-09-09T04:33:15;15.10;99.90
23471;DHT22;11908;50.806;4.424;2022-09-09T04:35:48;15.10;99.90
23471;DHT22;11908;50.806;4.424;2022-09-09T04:38:15;15.10;99.90
23471;DHT22;11908;50.806;4.424;2022-09-09T04:40:43;15.10;99.90
23471;DHT22;11908;50.806;4.424;2022-09-09T04:43:09;15.10;99.90
23471;DHT22;11908;50.806;4.424;2022-09-09T04:45:35;15.00;99.90
23471;DHT22;11908;50.806;4.424;2022-09-09T04:48:02;15.10;99.90
23471;DHT22;11908;50.806;4.424;2022-09-09T04:50:28;15.00;99.90
23471;DHT22;11908;50.806;4.424;2022-09-09T04:52:54;15.00;99.90
23471;DHT22;11908;50.806;4.424;2022-09-09T04:55:22;15.00;99.90
23471;DHT22;11908;50.806;4.424;2022-09-09T04:57:48;15.00;99.90
23471;DHT22;11908;50.806;4.424;2022-09-09T05:00:14;15.00;99.90
23471;DHT22;11908;50.806;4.424;2022-09-09T05:02:40;15.00;99.90
23471;DHT22;11908;50.806;4.424;2022-09-09T05:05:06;15.00;99.90
23471;DHT22;11908;50.806;4.424;2022-09-09T05:07:32;15.10;99.90
23471;DHT22;11908;50.806;4.424;2022-09-09T05:09:58;15.00;99.90
23471;DHT22;11908;50.806;4.424;2022-09-09T05:12:25;15.10;99.90
23471;DHT22;11908;50.806;4.424;2022-09-09T05:14:54;15.10;99.90
23471;DHT22;11908;50.806;4.424;2022-09-09T05:17:20;15.10;99.90
23471;DHT22;11908;50.806;4.424;2022-09-09T05:19:46;15.20;99.90
23471;DHT22;11908;50.806;4.424;2022-09-09T05:22:12;15.20;99.90
23471;DHT22;11908;50.806;4.424;2022-09-09T05:24:38;15.10;99.90
23471;DHT22;11908;50.806;4.424;2022-09-09T05:27:04;15.10;99.90
23471;DHT22;11908;50.806;4.424;2022-09-09T05:29:32;15.10;99.90
23471;DHT22;11908;50.806;4.424;2022-09-09T05:32:00;15.20;99.90
23471;DHT22;11908;50.806;4.424;2022-09-09T05:34:26;15.20;99.90
23471;DHT22;11908;50.806;4.424;2022-09-09T05:36:52;15.30;99.90
23471;DHT22;11908;50.806;4.424;2022-09-09T05:39:19;15.40;99.90
23471;DHT22;11908;50.806;4.424;2022-09-09T05:41:44;15.50;99.90
23471;DHT22;11908;50.806;4.424;2022-09-09T05:44:10;15.50;99.90
23471;DHT22;11908;50.806;4.424;2022-09-09T05:46:36;15.50;99.90
23471;DHT22;11908;50.806;4.424;2022-09-09T05:49:02;15.50;99.90
23471;DHT22;11908;50.806;4.424;2022-09-09T05:51:28;15.50;99.90
23471;DHT22;11908;50.806;4.424;2022-09-09T05:53:55;15.50;99.90
23471;DHT22;11908;50.806;4.424;2022-09-09T05:56:25;15.50;99.90
23471;DHT22;11908;50.806;4.424;2022-09-09T05:58:52;15.60;99.90
23471;DHT22;11908;50.806;4.424;2022-09-09T06:01:27;15.50;99.90
23471;DHT22;11908;50.806;4.424;2022-09-09T06:03:53;15.40;99.90
23471;DHT22;11908;50.806;4.424;2022-09-09T06:06:27;15.60;99.90
23471;DHT22;11908;50.806;4.424;2022-09-09T06:08:56;15.70;99.90
23471;DHT22;11908;50.806;4.424;2022-09-09T06:11:27;15.80;99.90
23471;DHT22;11908;50.806;4.424;2022-09-09T06:13:54;15.90;99.90
23471;DHT22;11908;50.806;4.424;2022-09-09T06:16:25;15.90;99.90
23471;DHT22;11908;50.806;4.424;2022-09-09T06:18:52;15.90;99.90
23471;DHT22;11908;50.806;4.424;2022-09-09T06:21:30;16.10;99.90
23471;DHT22;11908;50.806;4.424;2022-09-09T06:23:57;16.20;99.90
23471;DHT22;11908;50.806;4.424;2022-09-09T06:26:27;16.30;99.90
23471;DHT22;11908;50.806;4.424;2022-09-09T06:28:55;16.40;99.90
23471;DHT22;11908;50.806;4.424;2022-09-09T06:31:24;16.30;99.90
23471;DHT22;11908;50.806;4.424;2022-09-09T06:33:51;16.40;99.90
23471;DHT22;11908;50.806;4.424;2022-09-09T06:36:37;16.50;99.90
23471;DHT22;11908;50.806;4.424;2022-09-09T06:39:04;16.50;99.90
23471;DHT22;11908;50.806;4.424;2022-09-09T06:41:31;16.50;99.90
23471;DHT22;11908;50.806;4.424;2022-09-09T06:43:57;16.50;99.90
23471;DHT22;11908;50.806;4.424;2022-09-09T06:46:25;16.60;99.90
23471;DHT22;11908;50.806;4.424;2022-09-09T06:48:54;16.60;99.90
23471;DHT22;11908;50.806;4.424;2022-09-09T06:51:33;16.60;99.90
23471;DHT22;11908;50.806;4.424;2022-09-09T06:54:00;16.60;99.90
23471;DHT22;11908;50.806;4.424;2022-09-09T06:56:32;16.60;99.90
23471;DHT22;11908;50.806;4.424;2022-09-09T06:59:00;16.60;99.90
23471;DHT22;11908;50.806;4.424;2022-09-09T07:01:34;16.70;99.90
23471;DHT22;11908;50.806;4.424;2022-09-09T07:04:00;16.80;99.90
23471;DHT22;11908;50.806;4.424;2022-09-09T07:06:28;16.90;99.90
23471;DHT22;11908;50.806;4.424;2022-09-09T07:08:56;16.90;99.90
23471;DHT22;11908;50.806;4.424;2022-09-09T07:11:27;17.10;99.90
23471;DHT22;11908;50.806;4.424;2022-09-09T07:13:54;17.00;99.90
23471;DHT22;11908;50.806;4.424;2022-09-09T07:16:21;17.10;99.90
23471;DHT22;11908;50.806;4.424;2022-09-09T07:18:48;17.00;99.90
23471;DHT22;11908;50.806;4.424;2022-09-09T07:21:16;16.80;99.90
23471;DHT22;11908;50.806;4.424;2022-09-09T07:23:42;16.80;99.90
23471;DHT22;11908;50.806;4.424;2022-09-09T07:26:13;16.70;99.90
23471;DHT22;11908;50.806;4.424;2022-09-09T07:28:39;16.60;99.90
23471;DHT22;11908;50.806;4.424;2022-09-09T07:31:06;16.70;99.90
23471;DHT22;11908;50.806;4.424;2022-09-09T07:33:34;16.70;99.90
23471;DHT22;11908;50.806;4.424;2022-09-09T07:36:17;16.70;99.90
23471;DHT22;11908;50.806;4.424;2022-09-09T07:38:48;16.70;99.90
23471;DHT22;11908;50.806;4.424;2022-09-09T07:41:30;16.70;99.90
23471;DHT22;11908;50.806;4.424;2022-09-09T07:43:57;16.70;99.90
23471;DHT22;11908;50.806;4.424;2022-09-09T07:46:25;16.60;99.90
23471;DHT22;11908;50.806;4.424;2022-09-09T07:48:55;16.50;99.90
23471;DHT22;11908;50.806;4.424;2022-09-09T07:51:27;16.60;99.90
23471;DHT22;11908;50.806;4.424;2022-09-09T07:54:01;16.50;99.90
23471;DHT22;11908;50.806;4.424;2022-09-09T07:56:29;16.50;99.90
23471;DHT22;11908;50.806;4.424;2022-09-09T07:58:56;16.40;99.90
23471;DHT22;11908;50.806;4.424;2022-09-09T08:01:27;16.40;99.90
23471;DHT22;11908;50.806;4.424;2022-09-09T08:03:56;16.40;99.90
23471;DHT22;11908;50.806;4.424;2022-09-09T08:06:25;16.70;99.90
23471;DHT22;11908;50.806;4.424;2022-09-09T08:08:52;16.90;99.90
23471;DHT22;11908;50.806;4.424;2022-09-09T08:11:18;17.30;99.90
23471;DHT22;11908;50.806;4.424;2022-09-09T08:13:44;18.30;99.90
23471;DHT22;11908;50.806;4.424;2022-09-09T08:16:13;19.00;99.90
23471;DHT22;11908;50.806;4.424;2022-09-09T08:18:40;18.90;99.90
23471;DHT22;11908;50.806;4.424;2022-09-09T08:21:16;18.80;99.90
23471;DHT22;11908;50.806;4.424;2022-09-09T08:23:44;19.00;99.90
23471;DHT22;11908;50.806;4.424;2022-09-09T08:26:25;18.90;99.90
23471;DHT22;11908;50.806;4.424;2022-09-09T08:28:53;19.00;99.90
23471;DHT22;11908;50.806;4.424;2022-09-09T08:31:22;18.80;99.90
23471;DHT22;11908;50.806;4.424;2022-09-09T08:33:49;18.60;99.90
23471;DHT22;11908;50.806;4.424;2022-09-09T08:36:19;18.50;99.90
23471;DHT22;11908;50.806;4.424;2022-09-09T08:38:53;18.30;99.90
23471;DHT22;11908;50.806;4.424;2022-09-09T08:44:07;17.90;99.90
23471;DHT22;11908;50.806;4.424;2022-09-09T08:49:34;17.80;99.90
23471;DHT22;11908;50.806;4.424;2022-09-09T08:52:11;17.80;99.90
23471;DHT22;11908;50.806;4.424;2022-09-09T08:54:38;17.70;99.90
23471;DHT22;11908;50.806;4.424;2022-09-09T08:57:11;17.70;99.90
23471;DHT22;11908;50.806;4.424;2022-09-09T08:59:39;17.70;99.90
23471;DHT22;11908;50.806;4.424;2022-09-09T09:12:46;17.90;99.90
23471;DHT22;11908;50.806;4.424;2022-09-09T09:15:27;17.80;99.90
23471;DHT22;11908;50.806;4.424;2022-09-09T09:17:55;17.70;99.90
23471;DHT22;11908;50.806;4.424;2022-09-09T09:20:35;17.60;99.90
23471;DHT22;11908;50.806;4.424;2022-09-09T09:23:05;17.50;99.90
23471;DHT22;11908;50.806;4.424;2022-09-09T09:25:35;17.40;99.90
23471;DHT22;11908;50.806;4.424;2022-09-09T09:28:16;17.30;99.90
23471;DHT22;11908;50.806;4.424;2022-09-09T09:30:49;17.40;99.90
23471;DHT22;11908;50.806;4.424;2022-09-09T09:33:26;17.40;99.90
23471;DHT22;11908;50.806;4.424;2022-09-09T09:35:54;17.40;99.90
23471;DHT22;11908;50.806;4.424;2022-09-09T09:38:22;17.40;99.90
23471;DHT22;11908;50.806;4.424;2022-09-09T09:40:52;17.40;99.90
23471;DHT22;11908;50.806;4.424;2022-09-09T09:43:31;17.20;99.90
23471;DHT22;11908;50.806;4.424;2022-09-09T09:45:57;17.10;99.90
23471;DHT22;11908;50.806;4.424;2022-09-09T09:48:24;17.10;99.90
23471;DHT22;11908;50.806;4.424;2022-09-09T09:51:19;17.30;99.90
23471;DHT22;11908;50.806;4.424;2022-09-09T09:53:46;17.40;99.90
23471;DHT22;11908;50.806;4.424;2022-09-09T09:56:13;17.30;99.90
23471;DHT22;11908;50.806;4.424;2022-09-09T10:01:25;17.20;99.90
23471;DHT22;11908;50.806;4.424;2022-09-09T10:03:54;17.30;99.90
23471;DHT22;11908;50.806;4.424;2022-09-09T10:06:33;17.20;99.90
23471;DHT22;11908;50.806;4.424;2022-09-09T10:09:01;17.30;99.90
23471;DHT22;11908;50.806;4.424;2022-09-09T10:11:43;17.40;99.90
23471;DHT22;11908;50.806;4.424;2022-09-09T10:14:33;17.40;99.90
23471;DHT22;11908;50.806;4.424;2022-09-09T10:17:09;17.40;99.90
23471;DHT22;11908;50.806;4.424;2022-09-09T10:19:46;17.40;99.90
23471;DHT22;11908;50.806;4.424;2022-09-09T10:22:27;17.50;99.90
23471;DHT22;11908;50.806;4.424;2022-09-09T10:28:16;17.40;99.90
23471;DHT22;11908;50.806;4.424;2022-09-09T10:31:32;17.30;99.90
23471;DHT22;11908;50.806;4.424;2022-09-09T10:36:40;17.60;99.90
23471;DHT22;11908;50.806;4.424;2022-09-09T10:39:39;17.60;99.90
23471;DHT22;11908;50.806;4.424;2022-09-09T10:42:16;18.00;99.90
23471;DHT22;11908;50.806;4.424;2022-09-09T10:47:37;18.30;99.90
23471;DHT22;11908;50.806;4.424;2022-09-09T10:53:18;18.40;99.90
23471;DHT22;11908;50.806;4.424;2022-09-09T10:55:53;18.80;99.90
23471;DHT22;11908;50.806;4.424;2022-09-09T10:58:28;19.10;99.90
23471;DHT22;11908;50.806;4.424;2022-09-09T11:01:01;19.20;99.90
23471;DHT22;11908;50.806;4.424;2022-09-09T11:03:29;19.40;99.90
23471;DHT22;11908;50.806;4.424;2022-09-09T11:08:25;19.70;99.90
23471;DHT22;11908;50.806;4.424;2022-09-09T11:11:02;19.50;99.90
23471;DHT22;11908;50.806;4.424;2022-09-09T11:21:42;19.60;99.90
23471;DHT22;11908;50.806;4.424;2022-09-09T11:24:32;19.30;99.90
23471;DHT22;11908;50.806;4.424;2022-09-09T11:27:12;19.30;99.90
23471;DHT22;11908;50.806;4.424;2022-09-09T11:40:34;19.50;99.90
23471;DHT22;11908;50.806;4.424;2022-09-09T11:43:09;19.20;99.90
23471;DHT22;11908;50.806;4.424;2022-09-09T11:45:37;19.20;99.90
23471;DHT22;11908;50.806;4.424;2022-09-09T11:48:05;19.30;99.90
23471;DHT22;11908;50.806;4.424;2022-09-09T11:50:35;19.40;99.90
23471;DHT22;11908;50.806;4.424;2022-09-09T11:53:19;19.70;99.90
23471;DHT22;11908;50.806;4.424;2022-09-09T11:56:00;19.50;99.90
23471;DHT22;11908;50.806;4.424;2022-09-09T11:58:28;19.50;99.90
23471;DHT22;11908;50.806;4.424;2022-09-09T12:00:58;19.70;99.90
23471;DHT22;11908;50.806;4.424;2022-09-09T12:03:44;19.50;99.90
23471;DHT22;11908;50.806;4.424;2022-09-09T12:06:31;19.60;99.90
23471;DHT22;11908;50.806;4.424;2022-09-09T12:09:12;19.90;99.90
23471;DHT22;11908;50.806;4.424;2022-09-09T12:11:39;20.00;99.90
23471;DHT22;11908;50.806;4.424;2022-09-09T12:14:17;20.20;99.90
23471;DHT22;11908;50.806;4.424;2022-09-09T12:16:43;20.10;99.90
23471;DHT22;11908;50.806;4.424;2022-09-09T12:21:42;19.70;99.90
23471;DHT22;11908;50.806;4.424;2022-09-09T12:24:13;19.60;99.90
23471;DHT22;11908;50.806;4.424;2022-09-09T12:29:25;19.60;99.90
23471;DHT22;11908;50.806;4.424;2022-09-09T12:34:58;19.50;99.90
23471;DHT22;11908;50.806;4.424;2022-09-09T12:37:56;19.70;99.90
23471;DHT22;11908;50.806;4.424;2022-09-09T12:40:26;19.70;99.90
23471;DHT22;11908;50.806;4.424;2022-09-09T12:42:52;19.90;99.90
23471;DHT22;11908;50.806;4.424;2022-09-09T12:45:20;19.80;99.90
23471;DHT22;11908;50.806;4.424;2022-09-09T12:48:10;19.80;99.90
23471;DHT22;11908;50.806;4.424;2022-09-09T12:50:43;20.20;99.90
23471;DHT22;11908;50.806;4.424;2022-09-09T12:53:14;20.50;99.90
23471;DHT22;11908;50.806;4.424;2022-09-09T12:55:56;20.60;99.90
23471;DHT22;11908;50.806;4.424;2022-09-09T12:58:22;20.70;99.90
23471;DHT22;11908;50.806;4.424;2022-09-09T13:00:52;20.70;99.90
23471;DHT22;11908;50.806;4.424;2022-09-09T13:03:20;20.70;99.90
23471;DHT22;11908;50.806;4.424;2022-09-09T13:05:49;20.40;99.90
23471;DHT22;11908;50.806;4.424;2022-09-09T13:08:16;20.20;99.90
23471;DHT22;11908;50.806;4.424;2022-09-09T13:10:59;20.00;99.90
23471;DHT22;11908;50.806;4.424;2022-09-09T13:13:39;20.00;99.90
23471;DHT22;11908;50.806;4.424;2022-09-09T13:16:15;20.10;99.90
23471;DHT22;11908;50.806;4.424;2022-09-09T13:18:43;20.50;99.90
23471;DHT22;11908;50.806;4.424;2022-09-09T13:21:09;20.90;99.90
23471;DHT22;11908;50.806;4.424;2022-09-09T13:23:36;21.20;99.90
23471;DHT22;11908;50.806;4.424;2022-09-09T13:26:25;21.10;99.90
23471;DHT22;11908;50.806;4.424;2022-09-09T13:28:55;21.10;99.90
23471;DHT22;11908;50.806;4.424;2022-09-09T13:31:35;21.10;99.90
23471;DHT22;11908;50.806;4.424;2022-09-09T13:34:22;21.00;99.90
23471;DHT22;11908;50.806;4.424;2022-09-09T13:36:50;21.00;99.90
23471;DHT22;11908;50.806;4.424;2022-09-09T13:39:17;21.00;99.90
23471;DHT22;11908;50.806;4.424;2022-09-09T13:41:45;20.90;99.90
23471;DHT22;11908;50.806;4.424;2022-09-09T13:44:29;21.10;99.90
23471;DHT22;11908;50.806;4.424;2022-09-09T13:49:28;21.50;99.90
23471;DHT22;11908;50.806;4.424;2022-09-09T13:52:04;21.40;99.90
23471;DHT22;11908;50.806;4.424;2022-09-09T13:54:32;21.40;99.90
23471;DHT22;11908;50.806;4.424;2022-09-09T13:56:58;21.70;99.90
23471;DHT22;11908;50.806;4.424;2022-09-09T13:59:24;21.90;99.90
23471;DHT22;11908;50.806;4.424;2022-09-09T14:01:51;21.90;99.90
23471;DHT22;11908;50.806;4.424;2022-09-09T14:04:18;21.90;99.90
23471;DHT22;11908;50.806;4.424;2022-09-09T14:06:46;21.50;99.90
23471;DHT22;11908;50.806;4.424;2022-09-09T14:09:15;21.10;99.90
23471;DHT22;11908;50.806;4.424;2022-09-09T14:11:41;20.90;99.90
23471;DHT22;11908;50.806;4.424;2022-09-09T14:14:07;21.00;99.90
23471;DHT22;11908;50.806;4.424;2022-09-09T14:16:33;21.30;99.90
23471;DHT22;11908;50.806;4.424;2022-09-09T14:18:58;21.70;99.90
23471;DHT22;11908;50.806;4.424;2022-09-09T14:21:25;21.70;99.90
23471;DHT22;11908;50.806;4.424;2022-09-09T14:23:51;21.60;99.90
23471;DHT22;11908;50.806;4.424;2022-09-09T14:26:20;21.50;99.90
23471;DHT22;11908;50.806;4.424;2022-09-09T14:28:47;21.60;99.90
23471;DHT22;11908;50.806;4.424;2022-09-09T14:31:13;21.40;99.90
23471;DHT22;11908;50.806;4.424;2022-09-09T14:33:39;21.20;99.90
23471;DHT22;11908;50.806;4.424;2022-09-09T14:36:05;21.20;99.90
23471;DHT22;11908;50.806;4.424;2022-09-09T14:38:34;21.10;99.90
23471;DHT22;11908;50.806;4.424;2022-09-09T14:41:04;21.10;99.90
23471;DHT22;11908;50.806;4.424;2022-09-09T14:43:30;21.10;99.90
23471;DHT22;11908;50.806;4.424;2022-09-09T14:46:04;21.10;99.90
23471;DHT22;11908;50.806;4.424;2022-09-09T14:48:31;21.20;99.90
23471;DHT22;11908;50.806;4.424;2022-09-09T14:50:56;21.20;99.90
23471;DHT22;11908;50.806;4.424;2022-09-09T14:53:22;21.10;99.90
23471;DHT22;11908;50.806;4.424;2022-09-09T14:55:48;21.00;99.90
23471;DHT22;11908;50.806;4.424;2022-09-09T14:58:14;21.20;99.90
23471;DHT22;11908;50.806;4.424;2022-09-09T15:00:39;21.10;99.90
23471;DHT22;11908;50.806;4.424;2022-09-09T15:03:06;21.10;99.90
23471;DHT22;11908;50.806;4.424;2022-09-09T15:05:32;21.10;99.90
23471;DHT22;11908;50.806;4.424;2022-09-09T15:07:57;21.00;99.90
23471;DHT22;11908;50.806;4.424;2022-09-09T15:10:24;21.10;99.90
23471;DHT22;11908;50.806;4.424;2022-09-09T15:12:49;20.80;99.90
23471;DHT22;11908;50.806;4.424;2022-09-09T15:15:15;20.80;99.90
23471;DHT22;11908;50.806;4.424;2022-09-09T15:17:41;20.90;99.90
23471;DHT22;11908;50.806;4.424;2022-09-09T15:20:07;21.10;99.90
23471;DHT22;11908;50.806;4.424;2022-09-09T15:22:33;21.20;99.90
23471;DHT22;11908;50.806;4.424;2022-09-09T15:24:59;21.30;99.90
23471;DHT22;11908;50.806;4.424;2022-09-09T15:27:25;21.30;99.90
23471;DHT22;11908;50.806;4.424;2022-09-09T15:29:50;21.40;99.90
23471;DHT22;11908;50.806;4.424;2022-09-09T15:32:17;21.20;99.90
23471;DHT22;11908;50.806;4.424;2022-09-09T15:34:43;21.40;99.90
23471;DHT22;11908;50.806;4.424;2022-09-09T15:37:12;21.00;99.90
23471;DHT22;11908;50.806;4.424;2022-09-09T15:39:39;20.90;99.90
23471;DHT22;11908;50.806;4.424;2022-09-09T15:42:05;20.70;99.90
23471;DHT22;11908;50.806;4.424;2022-09-09T15:44:42;20.80;99.90
23471;DHT22;11908;50.806;4.424;2022-09-09T15:47:11;20.70;99.90
23471;DHT22;11908;50.806;4.424;2022-09-09T15:49:37;20.50;99.90
23471;DHT22;11908;50.806;4.424;2022-09-09T15:52:04;20.60;99.90
23471;DHT22;11908;50.806;4.424;2022-09-09T15:54:36;20.70;99.90
23471;DHT22;11908;50.806;4.424;2022-09-09T15:57:06;20.70;99.90
23471;DHT22;11908;50.806;4.424;2022-09-09T15:59:32;20.60;99.90
23471;DHT22;11908;50.806;4.424;2022-09-09T16:02:00;20.50;99.90
23471;DHT22;11908;50.806;4.424;2022-09-09T16:04:26;20.50;99.90
23471;DHT22;11908;50.806;4.424;2022-09-09T16:06:56;20.60;99.90
23471;DHT22;11908;50.806;4.424;2022-09-09T16:09:24;20.60;99.90
23471;DHT22;11908;50.806;4.424;2022-09-09T16:11:50;20.50;99.90
23471;DHT22;11908;50.806;4.424;2022-09-09T16:14:17;20.30;99.90
23471;DHT22;11908;50.806;4.424;2022-09-09T16:16:43;20.40;99.90
23471;DHT22;11908;50.806;4.424;2022-09-09T16:19:11;20.40;99.90
23471;DHT22;11908;50.806;4.424;2022-09-09T16:21:43;20.30;99.90
23471;DHT22;11908;50.806;4.424;2022-09-09T16:24:12;20.20;99.90
23471;DHT22;11908;50.806;4.424;2022-09-09T16:26:40;20.10;99.90
23471;DHT22;11908;50.806;4.424;2022-09-09T16:29:07;20.00;99.90
23471;DHT22;11908;50.806;4.424;2022-09-09T16:31:34;19.80;99.90
23471;DHT22;11908;50.806;4.424;2022-09-09T16:33:59;19.60;99.90
23471;DHT22;11908;50.806;4.424;2022-09-09T16:36:28;19.30;99.90
23471;DHT22;11908;50.806;4.424;2022-09-09T16:39:00;19.10;99.90
23471;DHT22;11908;50.806;4.424;2022-09-09T16:41:27;19.00;99.90
23471;DHT22;11908;50.806;4.424;2022-09-09T16:43:55;19.00;99.90
23471;DHT22;11908;50.806;4.424;2022-09-09T16:46:22;18.90;99.90
23471;DHT22;11908;50.806;4.424;2022-09-09T16:48:49;18.70;99.90
23471;DHT22;11908;50.806;4.424;2022-09-09T16:51:30;18.60;99.90
23471;DHT22;11908;50.806;4.424;2022-09-09T16:53:58;18.60;99.90
23471;DHT22;11908;50.806;4.424;2022-09-09T16:56:27;18.70;99.90
23471;DHT22;11908;50.806;4.424;2022-09-09T16:58:58;18.70;99.90
23471;DHT22;11908;50.806;4.424;2022-09-09T17:01:25;18.80;99.90
23471;DHT22;11908;50.806;4.424;2022-09-09T17:03:58;18.70;99.90
23471;DHT22;11908;50.806;4.424;2022-09-09T17:06:26;18.90;99.90
23471;DHT22;11908;50.806;4.424;2022-09-09T17:08:56;18.90;99.90
23471;DHT22;11908;50.806;4.424;2022-09-09T17:11:22;18.90;99.90
23471;DHT22;11908;50.806;4.424;2022-09-09T17:13:49;18.70;99.90
23471;DHT22;11908;50.806;4.424;2022-09-09T17:16:17;18.80;99.90
23471;DHT22;11908;50.806;4.424;2022-09-09T17:18:43;18.80;99.90
23471;DHT22;11908;50.806;4.424;2022-09-09T17:21:15;18.70;99.90
23471;DHT22;11908;50.806;4.424;2022-09-09T17:23:42;18.40;99.90
23471;DHT22;11908;50.806;4.424;2022-09-09T17:26:10;18.40;99.90